Terminal Aerodrome Forecast
Issued by NWS

Home | Current Version | Previous Version | Text Only | Print | Product List | Glossary On
Versions: 1 2 3 4 5 6 7 8 9 10 11 12 13 14 15 16 17 18 19 20 21 22
649
FTUS41 KPBZ 091723
TAFZZV
TAF
KZZV 091723Z 0918/1018 25010KT 5SM -SHSN OVC012
     FM100000 27008KT P6SM BKN025
     FM101600 26010KT 3SM -SHSN OVC015=

USA.gov is the U.S. government's official web portal to all federal, state and local government web resources and services.